Time;durP1;ratioP1;P1;durP2;ratioP2;P2;SDS_P1;SDS_P2;PMS_P1;PMS_P2;Temp;Humidity;BMP_temperature;BMP_pressure;BME280_temperature;BME280_humidity;BME280_pressure;Samples;Min_cycle;Max_cycle;Signal;HPM_P1;HPM_P2
2023/04/04 00:01:18;;;;;;;4.05;1.80;;;1.80;79.50;;;;;;5053569;28;20861;-45
2023/04/04 00:03:44;;;;;;;7.70;1.73;;;1.70;79.60;;;;;;5053301;28;20112;-46
2023/04/04 00:06:12;;;;;;;5.78;2.05;;;1.70;79.70;;;;;;5054198;28;20436;-49
2023/04/04 00:08:39;;;;;;;5.25;1.83;;;1.60;79.70;;;;;;5072518;28;20049;-45
2023/04/04 00:11:06;;;;;;;4.30;2.15;;;1.60;79.80;;;;;;5074299;28;20017;-45
2023/04/04 00:13:34;;;;;;;6.43;2.88;;;1.50;80.10;;;;;;5056936;28;20349;-45
2023/04/04 00:16:01;;;;;;;7.53;3.75;;;1.50;80.30;;;;;;5053560;28;20044;-45
2023/04/04 00:18:28;;;;;;;10.13;5.05;;;1.40;80.40;;;;;;5054168;28;20021;-45
2023/04/04 00:20:53;;;;;;;10.65;5.90;;;1.40;80.50;;;;;;5054452;28;20029;-47
2023/04/04 00:23:20;;;;;;;9.85;4.82;;;1.40;80.70;;;;;;5067984;28;20052;-50
2023/04/04 00:25:54;;;;;;;8.93;5.32;;;1.40;80.90;;;;;;5056586;28;20077;-45
2023/04/04 00:28:20;;;;;;;8.63;4.40;;;1.30;80.80;;;;;;5056299;28;20374;-45
2023/04/04 00:30:47;;;;;;;9.15;3.92;;;1.30;80.80;;;;;;5053057;28;20383;-47
2023/04/04 00:33:14;;;;;;;6.10;3.20;;;1.30;81.00;;;;;;5053443;28;20370;-49
2023/04/04 00:35:40;;;;;;;4.82;2.88;;;1.30;80.80;;;;;;5053904;28;20100;-46
2023/04/04 00:38:08;;;;;;;7.78;3.53;;;1.20;80.90;;;;;;5053944;28;20029;-46
2023/04/04 00:40:46;;;;;;;6.75;3.03;;;1.20;80.90;;;;;;5053103;28;20185;-46
2023/04/04 00:43:15;;;;;;;8.13;2.85;;;1.20;81.30;;;;;;5020549;28;20028;-46
2023/04/04 00:45:44;;;;;;;7.72;3.05;;;1.20;81.60;;;;;;5053754;28;20021;-48
2023/04/04 00:48:16;;;;;;;4.55;2.30;;;1.10;81.60;;;;;;5053467;28;20037;-46
2023/04/04 00:50:42;;;;;;;6.90;2.10;;;1.10;81.60;;;;;;5052599;28;20441;-48
2023/04/04 00:53:07;;;;;;;6.40;2.90;;;1.00;81.60;;;;;;5053793;28;20036;-47
2023/04/04 00:55:38;;;;;;;4.00;2.28;;;1.00;81.70;;;;;;5053399;28;20028;-44
2023/04/04 00:58:06;;;;;;;5.95;2.33;;;1.00;81.80;;;;;;5052384;28;20025;-48
2023/04/04 01:00:38;;;;;;;7.35;2.45;;;1.00;81.80;;;;;;5052362;28;20033;-49
2023/04/04 01:03:09;;;;;;;6.28;2.53;;;1.00;81.90;;;;;;5052218;28;20032;-48
2023/04/04 01:05:37;;;;;;;4.03;2.05;;;1.00;81.90;;;;;;5052547;28;20037;-48
2023/04/04 01:08:07;;;;;;;6.78;2.58;;;1.00;82.30;;;;;;5070000;28;20083;-48
2023/04/04 01:10:40;;;;;;;7.68;3.05;;;1.00;82.50;;;;;;5073564;28;20420;-46
2023/04/04 01:13:09;;;;;;;4.55;2.35;;;1.00;82.60;;;;;;5052772;28;20064;-47
2023/04/04 01:15:36;;;;;;;5.72;2.50;;;1.00;82.40;;;;;;5053349;28;20082;-47
2023/04/04 01:18:07;;;;;;;9.55;2.92;;;1.00;82.80;;;;;;5063015;28;20108;-45
2023/04/04 01:20:43;;;;;;;4.15;1.85;;;0.90;82.80;;;;;;5073394;28;20119;-45
2023/04/04 01:23:12;;;;;;;6.95;2.63;;;0.90;82.90;;;;;;5055541;28;20037;-46
2023/04/04 01:25:39;;;;;;;5.50;2.08;;;0.90;82.80;;;;;;5067505;28;20419;-47
2023/04/04 01:28:05;;;;;;;7.57;2.92;;;0.90;83.00;;;;;;5035193;28;20116;-46
2023/04/04 01:30:35;;;;;;;11.05;2.65;;;0.80;83.20;;;;;;5052790;28;20100;-45
2023/04/04 01:33:12;;;;;;;6.72;2.38;;;0.80;83.30;;;;;;5060097;28;20042;-48
2023/04/04 01:36:05;;;;;;;5.43;2.72;;;0.80;83.40;;;;;;5071784;28;20036;-47
2023/04/04 01:38:34;;;;;;;4.90;2.05;;;0.70;83.30;;;;;;5062069;28;20428;-46
2023/04/04 01:41:03;;;;;;;;;;;0.70;83.40;;;;;;5054873;28;20047;-47
2023/04/04 01:43:32;;;;;;;6.82;2.25;;;0.60;83.50;;;;;;5052389;28;19908;-45
2023/04/04 01:46:00;;;;;;;5.72;2.30;;;0.60;83.40;;;;;;5053206;28;20051;-47
2023/04/04 01:48:27;;;;;;;6.28;2.17;;;0.60;83.40;;;;;;5052857;28;20032;-46
2023/04/04 01:50:56;;;;;;;8.52;3.75;;;0.50;83.30;;;;;;5053192;28;20036;-46
2023/04/04 01:53:25;;;;;;;3.70;2.03;;;0.50;83.50;;;;;;5052801;28;20514;-45
2023/04/04 01:55:51;;;;;;;5.47;2.65;;;0.50;83.80;;;;;;5052780;28;20040;-46
2023/04/04 01:58:31;;;;;;;5.03;2.38;;;0.60;83.90;;;;;;5052941;28;20025;-46
2023/04/04 02:00:57;;;;;;;6.57;2.47;;;0.50;83.80;;;;;;5061831;28;20064;-45
2023/04/04 02:03:24;;;;;;;4.05;1.95;;;0.50;83.90;;;;;;5072073;28;20055;-46
2023/04/04 02:05:53;;;;;;;7.30;4.00;;;0.50;83.90;;;;;;5055036;28;20040;-46
2023/04/04 02:08:23;;;;;;;7.28;2.00;;;0.50;83.90;;;;;;5052519;28;20450;-46
2023/04/04 02:10:51;;;;;;;7.82;2.63;;;0.50;84.10;;;;;;5051194;28;20041;-48
2023/04/04 02:13:18;;;;;;;4.15;2.08;;;0.50;84.10;;;;;;5051645;28;20446;-46
2023/04/04 02:15:44;;;;;;;5.45;2.47;;;0.50;84.10;;;;;;5052887;28;20029;-47
2023/04/04 02:18:10;;;;;;;5.18;2.97;;;0.50;84.10;;;;;;5052579;28;20028;-46
2023/04/04 02:20:37;;;;;;;6.53;2.47;;;0.60;84.20;;;;;;5052707;28;20040;-48
2023/04/04 02:23:04;;;;;;;4.70;2.05;;;0.50;84.20;;;;;;5051870;28;20025;-46
2023/04/04 02:25:31;;;;;;;7.95;2.63;;;0.60;84.30;;;;;;5052435;28;20458;-47
2023/04/04 02:27:58;;;;;;;5.43;2.78;;;0.50;84.30;;;;;;5052740;28;20048;-45
2023/04/04 02:30:26;;;;;;;3.90;2.10;;;0.50;84.20;;;;;;5052443;28;20099;-45
2023/04/04 02:32:57;;;;;;;5.95;2.33;;;0.40;84.20;;;;;;5052422;28;20021;-47
2023/04/04 02:35:25;;;;;;;5.68;2.25;;;0.40;84.10;;;;;;5052398;28;20033;-46
2023/04/04 02:37:52;;;;;;;4.75;2.17;;;0.40;84.20;;;;;;5052628;28;20021;-46
2023/04/04 02:40:21;;;;;;;7.32;2.72;;;0.40;84.30;;;;;;5052398;28;20140;-46
2023/04/04 02:42:48;;;;;;;6.40;2.03;;;0.40;84.20;;;;;;5051585;28;20117;-48
2023/04/04 02:45:15;;;;;;;4.78;2.90;;;0.30;84.00;;;;;;5052395;28;20417;-46
2023/04/04 02:47:48;;;;;;;3.95;2.05;;;0.30;84.30;;;;;;5051979;28;20033;-47
2023/04/04 02:50:17;;;;;;;6.15;2.00;;;0.30;84.10;;;;;;5050696;28;20036;-46
2023/04/04 02:52:45;;;;;;;7.72;2.58;;;0.30;84.10;;;;;;5052046;28;20462;-46
2023/04/04 02:55:23;;;;;;;6.35;2.40;;;0.20;84.20;;;;;;5055686;28;20065;-46
2023/04/04 02:57:51;;;;;;;7.85;2.80;;;0.20;84.50;;;;;;5055883;28;20044;-46
2023/04/04 03:00:19;;;;;;;10.50;4.40;;;0.20;84.60;;;;;;5054757;28;20040;-46
2023/04/04 03:02:52;;;;;;;5.30;2.40;;;0.20;84.40;;;;;;5055951;28;20036;-46
2023/04/04 03:05:24;;;;;;;5.55;2.20;;;0.20;84.60;;;;;;5054976;28;20028;-47
2023/04/04 03:07:56;;;;;;;6.25;2.92;;;0.20;84.50;;;;;;5054603;28;20057;-47
2023/04/04 03:10:28;;;;;;;5.38;2.42;;;0.20;84.50;;;;;;5055441;28;20114;-47
2023/04/04 03:12:58;;;;;;;6.63;3.83;;;0.10;84.40;;;;;;5039216;28;20422;-49
2023/04/04 03:15:25;;;;;;;6.07;2.83;;;0.10;84.50;;;;;;5054583;28;20036;-47
2023/04/04 03:17:53;;;;;;;4.97;2.30;;;0.10;84.60;;;;;;5055620;28;20040;-46
2023/04/04 03:20:22;;;;;;;6.38;2.55;;;0.10;84.60;;;;;;5055236;28;20094;-46
2023/04/04 03:22:51;;;;;;;9.60;2.80;;;0.10;84.60;;;;;;5070964;28;20041;-46
2023/04/04 03:25:16;;;;;;;4.35;2.08;;;0.10;84.60;;;;;;5075147;28;20554;-48
2023/04/04 03:27:42;;;;;;;7.50;2.47;;;0.10;84.80;;;;;;5062498;28;20141;-46
2023/04/04 03:30:10;;;;;;;9.48;2.72;;;0.10;84.80;;;;;;5055243;28;20060;-46
2023/04/04 03:32:36;;;;;;;7.72;2.83;;;0.10;84.80;;;;;;5055045;28;20512;-48
2023/04/04 03:35:02;;;;;;;7.30;3.40;;;0.10;84.80;;;;;;5055287;28;20025;-49
2023/04/04 03:37:33;;;;;;;6.18;2.80;;;0.10;84.90;;;;;;5054625;28;20043;-46
2023/04/04 03:40:01;;;;;;;4.78;2.50;;;0.10;85.00;;;;;;5053814;28;20032;-46
2023/04/04 03:42:34;;;;;;;7.75;2.88;;;0.10;85.00;;;;;;5054043;28;20025;-46
2023/04/04 03:45:07;;;;;;;9.30;3.47;;;0.10;85.20;;;;;;5040797;28;20051;-46
2023/04/04 03:47:37;;;;;;;8.00;3.75;;;0.10;85.30;;;;;;5075123;28;20170;-48
2023/04/04 03:50:04;;;;;;;7.90;3.50;;;0.20;85.40;;;;;;5073924;28;20331;-48
2023/04/04 03:52:37;;;;;;;8.18;3.28;;;0.20;85.40;;;;;;5064271;28;20021;-49
2023/04/04 03:55:14;;;;;;;9.10;4.30;;;0.20;85.30;;;;;;5054307;28;20041;-50
2023/04/04 03:57:42;;;;;;;6.25;3.08;;;0.20;85.20;;;;;;5053617;28;20029;-46
2023/04/04 04:00:10;;;;;;;7.05;2.90;;;0.20;85.30;;;;;;5054371;28;20079;-47
2023/04/04 04:02:40;;;;;;;6.63;2.88;;;0.20;85.30;;;;;;5054676;28;20058;-48
2023/04/04 04:05:09;;;;;;;6.82;3.90;;;0.20;85.30;;;;;;5059349;28;20032;-48
2023/04/04 04:07:34;;;;;;;7.25;3.63;;;0.20;85.40;;;;;;5074331;28;20182;-49
2023/04/04 04:10:04;;;;;;;5.03;2.53;;;0.20;85.30;;;;;;5074355;28;20108;-48
2023/04/04 04:12:30;;;;;;;6.75;3.03;;;0.20;85.30;;;;;;5057639;28;20461;-50
2023/04/04 04:14:57;;;;;;;8.43;4.53;;;0.10;85.30;;;;;;5054319;28;20111;-47
2023/04/04 04:17:23;;;;;;;12.07;4.05;;;0.20;85.40;;;;;;5054530;28;20442;-48
2023/04/04 04:19:51;;;;;;;10.07;3.63;;;0.20;85.30;;;;;;5054289;28;20103;-48
2023/04/04 04:22:17;;;;;;;7.05;3.63;;;0.20;85.40;;;;;;5053226;28;20169;-48
2023/04/04 04:24:45;;;;;;;7.65;4.25;;;0.20;85.30;;;;;;5054293;28;20062;-51
2023/04/04 04:27:12;;;;;;;9.88;4.05;;;0.20;85.30;;;;;;5054364;28;20346;-48
2023/04/04 04:29:39;;;;;;;7.75;3.58;;;0.20;85.20;;;;;;5068836;28;20442;-47
2023/04/04 04:32:05;;;;;;;9.57;4.00;;;0.20;85.20;;;;;;5073723;28;20327;-46
2023/04/04 04:34:34;;;;;;;8.55;5.45;;;0.20;85.20;;;;;;5054542;28;20072;-49
2023/04/04 04:37:01;;;;;;;6.18;3.20;;;0.10;85.20;;;;;;5052868;28;20036;-47
2023/04/04 04:39:28;;;;;;;6.35;4.10;;;0.10;85.20;;;;;;5054221;28;20056;-45
2023/04/04 04:41:55;;;;;;;12.10;4.72;;;0.10;85.30;;;;;;5053763;28;20020;-46
2023/04/04 04:44:25;;;;;;;8.48;4.00;;;0.00;85.20;;;;;;5052833;28;20025;-46
2023/04/04 04:46:51;;;;;;;9.18;4.55;;;0.00;85.20;;;;;;5053442;28;20033;-46
2023/04/04 04:49:20;;;;;;;10.25;4.25;;;0.00;85.20;;;;;;5053459;28;20029;-46
2023/04/04 04:51:48;;;;;;;8.68;2.97;;;0.00;85.30;;;;;;5053500;28;20083;-46
2023/04/04 04:54:15;;;;;;;8.50;3.35;;;0.00;85.30;;;;;;5053853;28;20055;-46
2023/04/04 04:56:42;;;;;;;8.38;4.10;;;0.00;85.20;;;;;;5053621;28;20095;-45
2023/04/04 04:59:11;;;;;;;5.20;3.20;;;0.00;85.30;;;;;;5036257;28;20025;-48
2023/04/04 05:01:39;;;;;;;9.07;3.90;;;0.00;85.10;;;;;;5053717;28;20040;-48
2023/04/04 05:04:07;;;;;;;5.57;3.53;;;0.00;85.50;;;;;;5053069;28;20025;-44
2023/04/04 05:06:36;;;;;;;12.57;4.40;;;0.00;85.50;;;;;;5053459;28;20043;-48
2023/04/04 05:09:02;;;;;;;6.88;3.83;;;0.00;85.80;;;;;;5051998;28;20127;-47
2023/04/04 05:11:29;;;;;;;5.43;3.45;;;0.00;85.90;;;;;;5052729;28;20519;-46
2023/04/04 05:13:57;;;;;;;5.97;3.90;;;0.00;85.90;;;;;;5053457;28;20521;-48
2023/04/04 05:16:25;;;;;;;6.03;3.90;;;0.00;85.90;;;;;;5053396;28;20104;-48
2023/04/04 05:18:53;;;;;;;11.90;5.00;;;0.00;86.00;;;;;;5053359;28;20029;-50
2023/04/04 05:21:19;;;;;;;9.60;4.78;;;0.00;85.90;;;;;;5051851;28;20029;-52
2023/04/04 05:23:47;;;;;;;8.85;3.50;;;0.00;85.90;;;;;;5053505;28;20029;-45
2023/04/04 05:26:15;;;;;;;7.97;3.80;;;0.00;86.10;;;;;;5052863;28;20025;-46
2023/04/04 05:28:42;;;;;;;7.88;4.47;;;0.00;86.00;;;;;;5053037;28;20362;-46
2023/04/04 05:31:12;;;;;;;11.48;4.85;;;0.00;86.10;;;;;;5052919;28;20431;-46
2023/04/04 05:33:39;;;;;;;9.30;4.80;;;0.00;86.10;;;;;;5053383;28;20033;-46
2023/04/04 05:36:06;;;;;;;7.65;4.28;;;0.00;85.80;;;;;;5052363;28;20029;-46
2023/04/04 05:38:32;;;;;;;10.23;4.68;;;0.00;85.90;;;;;;5052980;28;20029;-47
2023/04/04 05:40:59;;;;;;;8.02;4.05;;;0.00;86.10;;;;;;5052005;28;20029;-47
2023/04/04 05:43:26;;;;;;;9.85;5.28;;;0.00;85.90;;;;;;5052825;28;20033;-46
2023/04/04 05:45:53;;;;;;;9.15;4.70;;;0.00;85.80;;;;;;5052842;28;20063;-50
2023/04/04 05:48:19;;;;;;;6.88;4.85;;;0.10;86.00;;;;;;5052797;28;20154;-46
2023/04/04 05:50:46;;;;;;;9.45;4.43;;;0.20;86.00;;;;;;5052765;28;20398;-45
2023/04/04 05:53:15;;;;;;;11.70;4.70;;;0.20;85.90;;;;;;5052634;28;20040;-47
2023/04/04 05:55:42;;;;;;;8.63;4.75;;;0.30;85.80;;;;;;5052570;28;20025;-48
2023/04/04 05:58:09;;;;;;;12.18;4.82;;;0.20;85.70;;;;;;5051399;28;20044;-46
2023/04/04 06:00:41;;;;;;;9.90;4.53;;;0.30;85.70;;;;;;5051957;28;20021;-48
2023/04/04 06:03:08;;;;;;;10.50;5.47;;;0.40;85.80;;;;;;5052847;28;20036;-46
2023/04/04 06:05:39;;;;;;;11.02;5.03;;;0.40;85.70;;;;;;5052727;28;20109;-49
2023/04/04 06:08:05;;;;;;;7.45;4.60;;;0.50;85.60;;;;;;5052357;28;20059;-46
2023/04/04 06:10:33;;;;;;;9.23;4.38;;;0.50;85.40;;;;;;5052818;28;20028;-46
2023/04/04 06:13:00;;;;;;;13.07;5.63;;;0.60;85.40;;;;;;5051687;28;20033;-46
2023/04/04 06:15:27;;;;;;;9.25;4.07;;;0.70;85.40;;;;;;5052562;28;20029;-46
2023/04/04 06:17:57;;;;;;;9.18;4.50;;;0.80;85.40;;;;;;5052678;28;20043;-46
2023/04/04 06:20:25;;;;;;;14.90;6.10;;;0.90;85.30;;;;;;5052553;28;20040;-46
2023/04/04 06:22:53;;;;;;;10.10;5.57;;;1.00;85.30;;;;;;5051657;28;20028;-50
2023/04/04 06:25:21;;;;;;;8.63;5.03;;;1.10;85.30;;;;;;5052252;28;20036;-44
2023/04/04 06:27:48;;;;;;;10.43;6.07;;;1.20;85.20;;;;;;5051564;28;20043;-46
2023/04/04 06:30:15;;;;;;;8.45;5.20;;;1.40;85.20;;;;;;5056151;28;20131;-47
2023/04/04 06:32:42;;;;;;;8.48;5.72;;;1.50;84.80;;;;;;5056287;28;20031;-46
2023/04/04 06:35:08;;;;;;;10.60;5.78;;;1.60;84.80;;;;;;5055346;28;20053;-45
2023/04/04 06:37:37;;;;;;;12.20;8.32;;;1.70;84.50;;;;;;5055287;28;20052;-45
2023/04/04 06:40:07;;;;;;;;;;;1.80;84.40;;;;;;5056926;28;20033;-46
2023/04/04 06:42:34;;;;;;;11.15;6.63;;;1.90;84.00;;;;;;5056011;28;20004;-46
2023/04/04 06:45:02;;;;;;;9.88;7.13;;;1.90;83.90;;;;;;5075932;28;20438;-45
2023/04/04 06:47:28;;;;;;;9.57;5.40;;;2.00;84.10;;;;;;5076082;28;20063;-46
2023/04/04 06:49:57;;;;;;;12.98;5.70;;;2.10;84.20;;;;;;5061918;28;20458;-44
2023/04/04 06:52:25;;;;;;;9.23;5.63;;;2.30;83.90;;;;;;5056083;28;20490;-44
2023/04/04 06:54:51;;;;;;;10.73;4.80;;;2.50;83.80;;;;;;5055227;28;20100;-43
2023/04/04 06:57:17;;;;;;;12.27;5.90;;;2.70;83.60;;;;;;5056887;28;20509;-45
2023/04/04 06:59:45;;;;;;;9.75;5.55;;;2.90;82.90;;;;;;5076242;28;20366;-48
2023/04/04 07:02:12;;;;;;;10.60;4.82;;;3.10;82.10;;;;;;5075817;28;20020;-45
2023/04/04 07:04:39;;;;;;;9.10;5.80;;;3.20;81.10;;;;;;5069499;28;20025;-44
2023/04/04 07:07:05;;;;;;;8.63;4.80;;;3.40;80.50;;;;;;5056142;28;20029;-46
2023/04/04 07:09:33;;;;;;;11.38;5.35;;;3.50;80.30;;;;;;5066474;28;20048;-45
2023/04/04 07:12:03;;;;;;;11.40;5.47;;;3.60;78.90;;;;;;5075846;28;20329;-43
2023/04/04 07:14:31;;;;;;;11.88;5.80;;;3.70;78.30;;;;;;5066607;28;20040;-45
2023/04/04 07:17:01;;;;;;;13.18;5.82;;;3.70;78.10;;;;;;5055594;28;20025;-44
2023/04/04 07:19:29;;;;;;;10.70;5.03;;;3.90;77.70;;;;;;5055549;28;20336;-45
2023/04/04 07:21:59;;;;;;;9.40;4.35;;;4.00;76.50;;;;;;5055480;28;20036;-48
2023/04/04 07:24:25;;;;;;;11.95;5.38;;;4.30;76.00;;;;;;5059514;28;20033;-47
2023/04/04 07:26:57;;;;;;;6.72;3.40;;;4.60;75.10;;;;;;5075410;28;20039;-46
2023/04/04 07:29:23;;;;;;;9.07;4.15;;;4.90;74.50;;;;;;5059391;28;20041;-45
2023/04/04 07:31:49;;;;;;;13.50;3.97;;;5.20;73.80;;;;;;5055154;28;20025;-44
2023/04/04 07:34:19;;;;;;;7.28;3.15;;;5.40;72.50;;;;;;5055394;28;20021;-47
2023/04/04 07:36:55;;;;;;;5.82;2.85;;;5.60;70.40;;;;;;5055116;28;20017;-44
2023/04/04 07:39:23;;;;;;;11.27;3.42;;;5.80;70.00;;;;;;5074887;28;20032;-46
2023/04/04 07:41:49;;;;;;;7.28;3.05;;;6.00;67.60;;;;;;5074149;28;20075;-43
2023/04/04 07:44:16;;;;;;;5.68;2.45;;;6.20;67.70;;;;;;5074841;28;20033;-46
2023/04/04 07:46:43;;;;;;;7.35;2.13;;;6.60;64.40;;;;;;5057381;28;20040;-49
2023/04/04 07:49:11;;;;;;;5.90;1.48;;;6.90;62.70;;;;;;5054843;28;20029;-44
2023/04/04 07:51:39;;;;;;;8.10;1.85;;;7.20;60.20;;;;;;5055307;28;20090;-43
2023/04/04 07:54:07;;;;;;;4.47;1.60;;;7.90;57.60;;;;;;5054819;28;20086;-46
2023/04/04 07:56:34;;;;;;;5.07;2.00;;;8.30;55.40;;;;;;5053688;28;20025;-46
2023/04/04 07:59:02;;;;;;;5.15;1.40;;;8.50;54.30;;;;;;5072162;28;20349;-44
2023/04/04 08:01:29;;;;;;;3.33;1.50;;;8.60;52.10;;;;;;5073555;28;20024;-44
2023/04/04 08:03:55;;;;;;;6.32;1.58;;;8.90;52.00;;;;;;5074703;28;20024;-48
2023/04/04 08:06:23;;;;;;;7.00;1.98;;;9.10;50.60;;;;;;5058834;28;20033;-45
2023/04/04 08:08:51;;;;;;;5.55;1.35;;;9.30;50.60;;;;;;5053943;28;20049;-46
2023/04/04 08:11:17;;;;;;;7.03;1.90;;;9.20;50.00;;;;;;5054348;28;20021;-47
2023/04/04 08:13:47;;;;;;;4.50;2.20;;;9.40;48.60;;;;;;5074099;28;20027;-49
2023/04/04 08:16:12;;;;;;;;;;;9.70;48.00;;;;;;5069505;28;20056;-45
2023/04/04 08:18:39;;;;;;;4.82;1.60;;;9.90;47.20;;;;;;5054320;28;19944;-45
2023/04/04 08:21:08;;;;;;;4.25;1.65;;;9.90;47.10;;;;;;5053993;28;20040;-45
2023/04/04 08:23:36;;;;;;;4.82;1.95;;;10.00;46.30;;;;;;5053908;28;20474;-46
2023/04/04 08:26:02;;;;;;;3.35;1.58;;;9.90;46.90;;;;;;5053856;28;20116;-47
2023/04/04 08:28:28;;;;;;;6.50;1.88;;;9.80;46.50;;;;;;5053946;28;20458;-45
2023/04/04 08:30:54;;;;;;;5.93;1.90;;;9.90;48.40;;;;;;5054133;28;20032;-44
2023/04/04 08:33:23;;;;;;;4.22;1.75;;;10.40;47.30;;;;;;5052648;28;20051;-46
2023/04/04 08:35:52;;;;;;;4.70;2.00;;;10.20;46.00;;;;;;5073771;28;20032;-49
2023/04/04 08:38:18;;;;;;;6.20;1.92;;;10.10;45.30;;;;;;5074117;28;20020;-46
2023/04/04 08:40:46;;;;;;;10.27;2.70;;;10.30;46.70;;;;;;5072717;28;20039;-45
2023/04/04 08:43:15;;;;;;;5.40;2.08;;;10.20;46.30;;;;;;5069679;28;20025;-47
2023/04/04 08:45:45;;;;;;;4.38;1.75;;;10.20;46.60;;;;;;5054025;28;20032;-47
2023/04/04 08:48:16;;;;;;;5.18;1.83;;;10.20;47.40;;;;;;5052753;28;20116;-44
2023/04/04 08:50:42;;;;;;;8.13;2.67;;;10.40;47.00;;;;;;5036378;28;20441;-45
2023/04/04 08:53:11;;;;;;;5.82;2.17;;;10.40;44.90;;;;;;5053323;28;20462;-46
2023/04/04 08:55:41;;;;;;;4.78;1.83;;;10.30;45.80;;;;;;5036188;28;20083;-45
2023/04/04 08:58:09;;;;;;;6.38;2.30;;;10.20;46.90;;;;;;5053819;28;20078;-46
2023/04/04 09:00:39;;;;;;;7.25;2.47;;;10.20;46.80;;;;;;5053767;28;20029;-44
2023/04/04 09:03:31;;;;;;;4.00;1.95;;;10.40;49.00;;;;;;5067875;28;20068;-44
2023/04/04 09:05:59;;;;;;;3.40;1.40;;;10.50;47.50;;;;;;5072756;28;20028;-45
2023/04/04 09:08:27;;;;;;;4.43;2.30;;;10.60;47.00;;;;;;5058050;28;20049;-45
2023/04/04 09:10:56;;;;;;;4.90;2.08;;;10.80;47.00;;;;;;5053459;28;20086;-46
2023/04/04 09:13:23;;;;;;;5.85;2.13;;;10.90;45.40;;;;;;5052194;28;20017;-51
2023/04/04 09:15:53;;;;;;;5.00;2.13;;;11.00;45.90;;;;;;5053354;28;20029;-45
2023/04/04 09:18:28;;;;;;;11.00;2.40;;;10.60;46.30;;;;;;5034953;28;20052;-45
2023/04/04 09:20:55;;;;;;;8.82;2.42;;;10.20;46.50;;;;;;5053820;28;20029;-46
2023/04/04 09:23:22;;;;;;;6.53;2.47;;;10.50;49.20;;;;;;5053257;28;20094;-46
2023/04/04 09:25:53;;;;;;;5.55;2.00;;;10.70;46.90;;;;;;5053354;28;20029;-50
2023/04/04 09:28:21;;;;;;;6.28;2.95;;;10.60;45.80;;;;;;5051891;28;20458;-46
2023/04/04 09:30:51;;;;;;;4.15;2.17;;;10.80;47.60;;;;;;5052683;28;20029;-47
2023/04/04 09:33:24;;;;;;;15.90;4.50;;;10.80;46.60;;;;;;5052358;28;20350;-45
2023/04/04 09:36:13;;;;;;;13.63;3.25;;;10.60;46.80;;;;;;5035593;28;20514;-44
2023/04/04 09:38:42;;;;;;;6.97;2.45;;;10.30;47.80;;;;;;5051844;28;20040;-44
2023/04/04 09:41:12;;;;;;;7.88;3.05;;;10.20;47.80;;;;;;5052484;28;20044;-47
2023/04/04 09:43:47;;;;;;;6.22;2.40;;;10.20;48.20;;;;;;5051750;28;20128;-45
2023/04/04 09:46:20;;;;;;;7.07;2.20;;;10.10;47.30;;;;;;5052969;28;20044;-47
2023/04/04 09:48:50;;;;;;;9.18;4.45;;;10.20;48.60;;;;;;5052146;28;20104;-45
2023/04/04 09:51:21;;;;;;;7.95;3.20;;;10.50;48.60;;;;;;5052872;28;20194;-46
2023/04/04 09:53:47;;;;;;;5.93;2.65;;;10.20;47.30;;;;;;5052873;28;20029;-45
2023/04/04 09:56:14;;;;;;;4.68;2.15;;;10.20;47.90;;;;;;5053052;28;20025;-46
2023/04/04 09:58:47;;;;;;;17.00;5.07;;;10.10;48.10;;;;;;5053133;28;20025;-45
2023/04/04 10:01:16;;;;;;;6.93;3.70;;;10.00;49.00;;;;;;5064038;28;20036;-47
2023/04/04 10:04:01;;;;;;;5.60;2.90;;;9.90;48.20;;;;;;5056238;28;20032;-45
2023/04/04 10:06:28;;;;;;;7.65;2.58;;;9.70;48.20;;;;;;5077080;28;20020;-44
2023/04/04 10:08:57;;;;;;;5.28;3.10;;;9.60;50.20;;;;;;5075899;28;20041;-50
2023/04/04 10:11:41;;;;;;;19.80;5.15;;;9.70;49.70;;;;;;5061786;28;20447;-46
2023/04/04 10:14:08;;;;;;;5.65;2.95;;;9.60;50.60;;;;;;5055284;28;20099;-47
2023/04/04 10:16:38;;;;;;;11.85;3.92;;;9.70;53.40;;;;;;5065897;28;20029;-45
2023/04/04 10:19:17;;;;;;;9.73;3.85;;;9.80;50.40;;;;;;5075982;28;20453;-47
2023/04/04 10:21:45;;;;;;;;;;;10.00;51.10;;;;;;5077105;28;20037;-49
2023/04/04 10:24:14;;;;;;;5.00;2.90;;;9.90;47.90;;;;;;5062621;28;19920;-50
2023/04/04 10:26:41;;;;;;;9.05;3.33;;;9.90;49.90;;;;;;5056448;28;20043;-46
2023/04/04 10:29:08;;;;;;;5.32;2.85;;;9.40;51.40;;;;;;5056394;28;20074;-47
2023/04/04 10:31:40;;;;;;;8.13;2.60;;;9.30;51.90;;;;;;5074141;28;20039;-48
2023/04/04 10:34:17;;;;;;;5.53;2.42;;;9.20;53.10;;;;;;5059081;28;20032;-45
2023/04/04 10:37:05;;;;;;;10.52;3.22;;;9.40;52.80;;;;;;5067388;28;20158;-44
2023/04/04 10:40:12;;;;;;;5.72;3.03;;;9.50;51.70;;;;;;5040357;28;20044;-46
2023/04/04 10:42:43;;;;;;;5.78;3.08;;;10.00;51.00;;;;;;5012926;28;20030;-47
2023/04/04 10:45:16;;;;;;;6.28;3.17;;;9.90;49.90;;;;;;5055904;28;20025;-50
2023/04/04 10:47:49;;;;;;;5.75;3.28;;;9.50;50.40;;;;;;5054780;28;20124;-44
2023/04/04 10:50:18;;;;;;;5.88;3.20;;;9.50;51.70;;;;;;5055735;28;20029;-46
2023/04/04 10:52:45;;;;;;;6.68;3.78;;;9.60;50.80;;;;;;5054707;28;20039;-50
2023/04/04 10:55:12;;;;;;;7.72;3.40;;;9.40;49.90;;;;;;5055750;28;20025;-50
2023/04/04 10:57:49;;;;;;;8.00;3.25;;;9.50;53.60;;;;;;5038297;28;20044;-45
2023/04/04 11:00:18;;;;;;;5.45;3.42;;;9.70;52.70;;;;;;5055005;28;20033;-44
2023/04/04 11:02:58;;;;;;;7.53;3.00;;;9.60;51.60;;;;;;5054338;28;20029;-44
2023/04/04 11:06:00;;;;;;;6.85;2.97;;;9.50;52.00;;;;;;5055896;28;20074;-45
2023/04/04 11:08:29;;;;;;;6.00;3.00;;;9.60;51.00;;;;;;5053911;28;20045;-46
2023/04/04 11:10:56;;;;;;;9.10;2.75;;;9.70;52.00;;;;;;5055852;28;20055;-46
2023/04/04 11:13:34;;;;;;;7.35;3.45;;;9.30;53.40;;;;;;5055363;28;20021;-47
2023/04/04 11:16:08;;;;;;;8.48;3.78;;;9.20;54.20;;;;;;5054606;28;20112;-47
2023/04/04 11:18:44;;;;;;;8.48;4.65;;;9.30;53.20;;;;;;5054687;28;20452;-46
2023/04/04 11:21:17;;;;;;;8.40;3.05;;;9.10;53.40;;;;;;5055545;28;20025;-48
2023/04/04 11:24:03;;;;;;;9.75;3.28;;;8.80;54.40;;;;;;5055232;28;20053;-46
2023/04/04 11:26:50;;;;;;;6.22;2.88;;;9.00;53.60;;;;;;5055513;28;20064;-45
2023/04/04 11:29:43;;;;;;;8.70;3.35;;;8.90;53.10;;;;;;5073828;28;20044;-47
2023/04/04 11:32:41;;;;;;;5.55;2.70;;;9.10;54.10;;;;;;5074109;28;20094;-48
2023/04/04 11:35:08;;;;;;;11.05;3.17;;;8.90;53.10;;;;;;5049675;28;20017;-45
2023/04/04 11:38:04;;;;;;;5.78;2.70;;;9.10;55.60;;;;;;5055332;28;20029;-46
2023/04/04 11:40:42;;;;;;;6.65;3.38;;;9.20;54.30;;;;;;5054641;28;20029;-44
2023/04/04 11:43:11;;;;;;;5.93;2.72;;;9.20;53.30;;;;;;5055347;28;20035;-45
2023/04/04 11:45:49;;;;;;;10.63;3.37;;;9.20;53.30;;;;;;5055283;28;20028;-44
2023/04/04 11:48:19;;;;;;;5.68;2.92;;;9.40;52.50;;;;;;5054064;28;20025;-47
2023/04/04 11:50:50;;;;;;;7.50;3.67;;;9.40;51.50;;;;;;5054164;28;20048;-45
2023/04/04 11:53:17;;;;;;;6.05;3.75;;;9.20;52.80;;;;;;5054188;28;20548;-45
2023/04/04 11:55:49;;;;;;;5.53;3.03;;;9.30;53.00;;;;;;5053927;28;20039;-46
2023/04/04 11:58:27;;;;;;;7.35;3.30;;;9.20;54.30;;;;;;5053035;28;20033;-47
2023/04/04 12:00:56;;;;;;;6.53;3.15;;;9.00;53.70;;;;;;5073957;28;20074;-46
2023/04/04 12:03:22;;;;;;;7.32;4.13;;;8.60;54.20;;;;;;5058803;28;20033;-45
2023/04/04 12:05:48;;;;;;;5.93;2.67;;;8.50;56.50;;;;;;5058917;28;20039;-44
2023/04/04 12:08:16;;;;;;;7.00;4.10;;;8.80;56.00;;;;;;5074300;28;20048;-49
2023/04/04 12:10:47;;;;;;;6.00;3.65;;;8.70;54.20;;;;;;5055074;28;20036;-48
2023/04/04 12:13:15;;;;;;;7.03;3.47;;;8.60;55.40;;;;;;5054357;28;20021;-48
2023/04/04 12:15:43;;;;;;;8.15;3.80;;;8.50;55.80;;;;;;5054502;28;20040;-49
2023/04/04 12:18:09;;;;;;;9.25;3.80;;;8.20;56.00;;;;;;5054310;28;20033;-47
2023/04/04 12:20:40;;;;;;;7.50;3.00;;;7.80;56.20;;;;;;5054271;28;20036;-45
2023/04/04 12:23:09;;;;;;;6.47;3.72;;;7.70;57.50;;;;;;5059893;28;20036;-45
2023/04/04 12:25:43;;;;;;;7.57;3.33;;;7.90;57.60;;;;;;5074286;28;20028;-47
2023/04/04 12:28:11;;;;;;;9.63;3.55;;;7.90;58.00;;;;;;5071426;28;20033;-45
2023/04/04 12:30:42;;;;;;;6.40;3.10;;;8.30;58.10;;;;;;5054139;28;20083;-46
2023/04/04 12:33:10;;;;;;;7.22;3.15;;;8.60;58.10;;;;;;5054216;28;20027;-46
2023/04/04 12:35:37;;;;;;;7.70;4.18;;;8.90;58.20;;;;;;5052895;28;20450;-44
2023/04/04 12:38:12;;;;;;;6.07;3.35;;;9.20;56.70;;;;;;5054456;28;20107;-44
2023/04/04 12:40:41;;;;;;;6.20;3.30;;;9.10;54.10;;;;;;5053927;28;20039;-47
2023/04/04 12:43:08;;;;;;;7.03;3.28;;;9.00;54.60;;;;;;5052951;28;20116;-45
2023/04/04 12:45:38;;;;;;;9.98;3.88;;;8.80;55.70;;;;;;5053789;28;20037;-45
2023/04/04 12:48:16;;;;;;;8.30;4.32;;;8.60;56.90;;;;;;5036200;28;20025;-46
2023/04/04 12:50:59;;;;;;;10.05;3.58;;;8.40;56.70;;;;;;5053797;28;20025;-45
2023/04/04 12:53:27;;;;;;;7.40;3.65;;;8.00;56.80;;;;;;5036350;28;20030;-47
2023/04/04 12:56:03;;;;;;;9.48;4.63;;;8.00;57.30;;;;;;5052735;28;20032;-48
2023/04/04 12:58:36;;;;;;;7.35;4.13;;;7.90;58.20;;;;;;5053525;28;20832;-45
2023/04/04 13:01:05;;;;;;;13.50;3.72;;;7.50;58.30;;;;;;5053740;28;20393;-46
2023/04/04 13:03:36;;;;;;;9.50;3.20;;;7.30;60.40;;;;;;5053755;28;20029;-50
2023/04/04 13:06:02;;;;;;;;;;;7.50;60.20;;;;;;5053032;28;20035;-50
2023/04/04 13:08:32;;;;;;;10.30;3.70;;;7.90;60.90;;;;;;5053173;28;20388;-46